Time;durP1;ratioP1;P1;durP2;ratioP2;P2;SDS_P1;SDS_P2;PMS_P1;PMS_P2;Temp;Humidity;BMP_temperature;BMP_pressure;BME280_temperature;BME280_humidity;BME280_pressure;Samples;Min_cycle;Max_cycle;Signal;HPM_P1;HPM_P2
2021/03/07 00:00:56;;;;;;;14.60;8.57;;;3.40;99.90;;;;;;5111879;28;20156;-87
2021/03/07 00:03:22;;;;;;;11.70;8.30;;;3.30;99.90;;;;;;5115165;28;20170;-88
2021/03/07 00:05:48;;;;;;;13.00;8.63;;;3.40;99.90;;;;;;5107087;28;20185;-84
2021/03/07 00:08:19;;;;;;;10.50;8.30;;;3.30;99.90;;;;;;5103187;28;20256;-90
2021/03/07 00:10:45;;;;;;;13.17;8.43;;;3.30;99.90;;;;;;5103294;28;20164;-83
2021/03/07 00:13:11;;;;;;;11.63;8.90;;;3.20;99.90;;;;;;5108119;28;20212;-86
2021/03/07 00:15:36;;;;;;;10.70;8.47;;;3.20;99.90;;;;;;5108287;28;20170;-90
2021/03/07 00:18:02;;;;;;;21.80;10.60;;;3.20;99.90;;;;;;5105116;28;20179;-86
2021/03/07 00:20:28;;;;;;;11.63;8.13;;;3.20;99.90;;;;;;5097298;28;20635;-81
2021/03/07 00:22:54;;;;;;;10.00;8.20;;;3.10;99.90;;;;;;5094452;28;20179;-82
2021/03/07 00:25:19;;;;;;;11.63;9.30;;;3.10;99.90;;;;;;5096556;28;20167;-90
2021/03/07 00:27:46;;;;;;;11.67;9.60;;;3.10;99.90;;;;;;5101609;28;20199;-85
2021/03/07 00:30:14;;;;;;;13.27;9.00;;;3.20;99.90;;;;;;5110064;28;20235;-80
2021/03/07 00:32:42;;;;;;;11.93;8.70;;;3.10;99.90;;;;;;5103195;28;20238;-79
2021/03/07 00:35:10;;;;;;;14.20;9.10;;;3.10;99.90;;;;;;5108285;28;20239;-80
2021/03/07 00:37:35;;;;;;;12.30;8.60;;;3.00;99.90;;;;;;5114629;28;20207;-78
2021/03/07 00:40:04;;;;;;;10.87;8.80;;;3.00;99.90;;;;;;5114658;27;20159;-80
2021/03/07 00:42:31;;;;;;;12.30;8.53;;;3.00;99.90;;;;;;5108660;28;20172;-81
2021/03/07 00:45:44;;;;;;;13.57;8.80;;;3.00;99.90;;;;;;5108490;28;20174;-86
2021/03/07 00:51:31;;;;;;;16.00;9.60;;;3.00;99.90;;;;;;5106067;28;20167;-89
2021/03/07 00:53:57;;;;;;;12.27;8.83;;;3.00;99.90;;;;;;5104689;28;20219;-90
2021/03/07 00:56:23;;;;;;;11.43;9.23;;;2.90;99.90;;;;;;5098632;28;20171;-80
2021/03/07 00:58:48;;;;;;;13.47;8.67;;;2.90;99.90;;;;;;5101870;28;20178;-89
2021/03/07 01:01:14;;;;;;;12.37;8.70;;;2.80;99.90;;;;;;5097721;28;20530;-92
2021/03/07 01:03:40;;;;;;;11.17;8.70;;;2.90;99.90;;;;;;5096766;28;20163;-91
2021/03/07 01:06:05;;;;;;;16.50;10.27;;;2.90;99.90;;;;;;5098295;28;20262;-90
2021/03/07 01:08:31;;;;;;;13.73;8.67;;;2.80;99.90;;;;;;5097893;28;20222;-90
2021/03/07 01:10:57;;;;;;;11.87;9.23;;;2.70;99.90;;;;;;5099797;28;20167;-89
2021/03/07 01:13:26;;;;;;;13.20;9.17;;;2.70;99.90;;;;;;5094903;28;20171;-87
2021/03/07 01:15:52;;;;;;;13.53;9.60;;;2.60;99.90;;;;;;5099430;28;20182;-89
2021/03/07 01:18:18;;;;;;;10.67;8.80;;;2.60;99.90;;;;;;5099581;28;20282;-89
2021/03/07 01:20:45;;;;;;;11.17;9.57;;;2.60;99.90;;;;;;5097020;28;20175;-91
2021/03/07 01:23:12;;;;;;;12.43;9.70;;;2.60;99.90;;;;;;5114869;28;20192;-81
2021/03/07 01:25:38;;;;;;;10.50;9.40;;;2.60;99.90;;;;;;5111526;28;20163;-79
2021/03/07 01:28:06;;;;;;;12.23;9.37;;;2.60;99.90;;;;;;5113535;27;20210;-89
2021/03/07 01:30:34;;;;;;;11.87;9.50;;;2.60;99.90;;;;;;5098909;28;20181;-89
2021/03/07 01:33:00;;;;;;;13.60;9.77;;;2.60;99.90;;;;;;5097029;28;20167;-90
2021/03/07 01:35:33;;;;;;;21.13;12.47;;;2.70;99.90;;;;;;5094016;28;20619;-91
2021/03/07 01:37:59;;;;;;;14.13;10.17;;;2.70;99.90;;;;;;5099077;28;20242;-89
2021/03/07 01:40:35;;;;;;;12.17;9.33;;;2.70;99.90;;;;;;5099174;28;20253;-85
2021/03/07 01:43:03;;;;;;;11.60;9.30;;;2.70;99.90;;;;;;5098634;28;20171;-82
2021/03/07 01:45:31;;;;;;;12.63;9.90;;;2.60;99.90;;;;;;5098165;28;20244;-87
2021/03/07 01:48:02;;;;;;;14.07;11.00;;;2.60;99.90;;;;;;5098057;28;20211;-83
2021/03/07 01:50:31;;;;;;;14.63;10.10;;;2.60;99.90;;;;;;5097818;28;20168;-80
2021/03/07 01:52:58;;;;;;;13.60;9.60;;;2.70;99.90;;;;;;5097746;28;20228;-91
2021/03/07 01:55:30;;;;;;;13.27;10.50;;;2.60;99.90;;;;;;5098371;28;20627;-91
2021/03/07 01:58:06;;;;;;;13.70;10.67;;;2.60;99.90;;;;;;5097733;28;20203;-86
2021/03/07 02:00:32;;;;;;;14.20;10.00;;;2.60;99.90;;;;;;5098264;28;20540;-90
2021/03/07 02:02:58;;;;;;;13.37;9.67;;;2.60;99.90;;;;;;5097025;28;20168;-90
2021/03/07 02:05:26;;;;;;;15.87;10.17;;;2.50;99.90;;;;;;5096792;28;20175;-90
2021/03/07 02:07:52;;;;;;;12.07;9.63;;;2.50;99.90;;;;;;5100040;28;20203;-89
2021/03/07 02:10:23;;;;;;;12.53;9.23;;;2.50;99.90;;;;;;5102158;28;20577;-79
2021/03/07 02:12:52;;;;;;;13.67;10.20;;;2.50;99.90;;;;;;5097125;28;20183;-90
2021/03/07 02:15:18;;;;;;;12.97;9.97;;;2.40;99.90;;;;;;5096678;28;20336;-81
2021/03/07 02:17:46;;;;;;;14.80;10.47;;;2.40;99.90;;;;;;5113177;27;20164;-79
2021/03/07 02:20:15;;;;;;;14.50;10.20;;;2.30;99.90;;;;;;5116237;27;20183;-84
2021/03/07 02:23:00;;;;;;;14.77;11.37;;;2.30;99.90;;;;;;5115763;27;20175;-88
2021/03/07 02:25:29;;;;;;;14.23;10.33;;;2.30;99.90;;;;;;5116833;27;20156;-81
2021/03/07 02:27:58;;;;;;;13.30;10.00;;;2.30;99.90;;;;;;5109435;28;20208;-89
2021/03/07 02:30:25;;;;;;;15.23;10.63;;;2.30;99.90;;;;;;5108784;28;20176;-85
2021/03/07 02:33:06;;;;;;;13.60;10.27;;;2.50;99.90;;;;;;5109939;28;20198;-82
2021/03/07 02:35:37;;;;;;;13.03;9.90;;;2.20;99.90;;;;;;5112593;27;20163;-79
2021/03/07 02:38:06;;;;;;;12.60;10.13;;;2.10;99.90;;;;;;5117812;27;20270;-79
2021/03/07 02:40:35;;;;;;;14.73;10.73;;;2.10;99.90;;;;;;5108521;28;20156;-90
2021/03/07 02:43:28;;;;;;;13.77;10.07;;;2.10;99.90;;;;;;5100576;28;20175;-83
2021/03/07 02:45:59;;;;;;;12.70;10.23;;;2.10;99.90;;;;;;5101840;28;20167;-85
2021/03/07 02:48:28;;;;;;;12.30;10.23;;;2.10;99.90;;;;;;5097908;28;20288;-90
2021/03/07 02:50:57;;;;;;;13.97;10.87;;;2.00;99.90;;;;;;5097207;28;20164;-86
2021/03/07 02:53:25;;;;;;;13.20;11.80;;;1.90;99.90;;;;;;5096371;28;20212;-84
2021/03/07 02:55:57;;;;;;;14.87;11.00;;;1.90;99.90;;;;;;5097212;28;20616;-90
2021/03/07 02:58:23;;;;;;;13.00;10.80;;;1.90;99.90;;;;;;5100125;28;20195;-85
2021/03/07 03:00:54;;;;;;;13.80;11.20;;;1.90;99.90;;;;;;5113559;28;20156;-78
2021/03/07 03:03:41;;;;;;;14.43;10.47;;;1.90;99.90;;;;;;5116808;27;20182;-81
2021/03/07 03:06:09;;;;;;;12.30;10.73;;;1.90;99.90;;;;;;5115447;27;20174;-85
2021/03/07 03:08:35;;;;;;;12.93;10.87;;;1.90;99.90;;;;;;5116562;27;20194;-79
2021/03/07 03:11:03;;;;;;;15.67;10.40;;;1.90;99.90;;;;;;5107630;28;20190;-79
2021/03/07 03:13:33;;;;;;;12.80;10.90;;;1.90;99.90;;;;;;5097634;28;20164;-79
2021/03/07 03:16:00;;;;;;;13.50;10.77;;;2.00;99.90;;;;;;5114463;27;20175;-86
2021/03/07 03:18:31;;;;;;;15.23;10.80;;;2.00;99.90;;;;;;5106417;28;20214;-87
2021/03/07 03:21:09;;;;;;;15.53;11.23;;;2.00;99.90;;;;;;5097637;28;20160;-90
2021/03/07 03:23:35;;;;;;;14.53;11.03;;;1.90;99.90;;;;;;5115001;27;20177;-79
2021/03/07 03:26:02;;;;;;;12.27;10.97;;;1.90;99.90;;;;;;5117404;27;20175;-78
2021/03/07 03:28:27;;;;;;;17.30;11.17;;;2.00;99.90;;;;;;5117449;27;20199;-78
2021/03/07 03:30:54;;;;;;;15.87;11.17;;;2.00;99.90;;;;;;5116138;28;20186;-80
2021/03/07 03:33:40;;;;;;;13.57;10.33;;;2.00;99.90;;;;;;5096080;27;20184;-80
2021/03/07 03:36:12;;;;;;;14.67;11.07;;;2.00;99.90;;;;;;5117644;27;20170;-81
2021/03/07 03:42:02;;;;;;;13.47;11.23;;;1.90;99.90;;;;;;5104348;28;20179;-84
2021/03/07 03:44:41;;;;;;;13.83;11.00;;;1.90;99.90;;;;;;5097522;28;20192;-82
2021/03/07 03:47:12;;;;;;;15.10;11.97;;;1.80;99.90;;;;;;5096446;28;20245;-90
2021/03/07 03:49:58;;;;;;;16.47;12.10;;;1.70;99.90;;;;;;5097011;28;20156;-86
2021/03/07 03:52:24;;;;;;;14.00;12.30;;;1.70;99.90;;;;;;5107660;27;20167;-82
2021/03/07 03:55:02;;;;;;;16.67;12.00;;;1.80;99.90;;;;;;5114093;28;20201;-78
2021/03/07 03:57:31;;;;;;;15.97;11.83;;;1.80;99.90;;;;;;5114140;27;20179;-79
2021/03/07 04:00:01;;;;;;;14.00;11.90;;;1.80;99.90;;;;;;5113483;28;20182;-87
2021/03/07 04:02:29;;;;;;;15.27;12.43;;;1.80;99.90;;;;;;5107485;28;20662;-86
2021/03/07 04:05:22;;;;;;;15.07;12.23;;;1.90;99.90;;;;;;5111813;28;20164;-87
2021/03/07 04:08:10;;;;;;;13.47;11.87;;;1.80;99.90;;;;;;5101801;28;20207;-79
2021/03/07 04:10:36;;;;;;;18.13;12.40;;;1.80;99.90;;;;;;5103596;28;20267;-89
2021/03/07 04:13:03;;;;;;;14.70;11.27;;;1.70;99.90;;;;;;5096563;28;20171;-89
2021/03/07 04:15:29;;;;;;;18.10;12.43;;;1.70;99.90;;;;;;5097252;28;20167;-90
2021/03/07 04:17:56;;;;;;;14.13;12.40;;;1.80;99.90;;;;;;5098757;28;20172;-85
2021/03/07 04:20:27;;;;;;;15.33;13.20;;;1.70;99.90;;;;;;5101594;28;20650;-90
2021/03/07 04:22:54;;;;;;;13.73;12.33;;;1.70;99.90;;;;;;5098239;28;20237;-85
2021/03/07 04:25:21;;;;;;;14.70;12.27;;;1.60;99.90;;;;;;5096694;28;20258;-90
2021/03/07 04:27:48;;;;;;;14.27;12.37;;;1.50;99.90;;;;;;5095408;28;20211;-89
2021/03/07 04:30:16;;;;;;;16.10;12.53;;;1.40;99.90;;;;;;5100918;28;20175;-88
2021/03/07 04:32:44;;;;;;;14.03;12.00;;;1.30;99.90;;;;;;5104174;28;20174;-89
2021/03/07 04:35:12;;;;;;;17.57;12.43;;;1.20;99.90;;;;;;5099005;28;20710;-87
2021/03/07 04:37:48;;;;;;;19.20;13.70;;;1.30;99.90;;;;;;5106106;28;20168;-89
2021/03/07 04:40:15;;;;;;;18.07;13.23;;;1.30;99.90;;;;;;5105824;28;20179;-84
2021/03/07 04:42:42;;;;;;;16.47;13.13;;;1.30;99.90;;;;;;5098387;28;20252;-90
2021/03/07 04:45:13;;;;;;;16.37;13.00;;;1.20;99.90;;;;;;5094368;28;20197;-87
2021/03/07 04:47:43;;;;;;;19.77;13.17;;;1.20;99.90;;;;;;5095452;28;20624;-90
2021/03/07 04:50:09;;;;;;;18.20;13.17;;;1.30;99.90;;;;;;5095062;28;20542;-81
2021/03/07 04:52:36;;;;;;;17.33;13.03;;;1.20;99.90;;;;;;5093140;28;20171;-79
2021/03/07 04:55:03;;;;;;;17.50;12.70;;;1.10;99.90;;;;;;5106808;27;20171;-90
2021/03/07 04:57:29;;;;;;;18.00;14.43;;;1.10;99.90;;;;;;5115777;27;20159;-79
2021/03/07 04:59:55;;;;;;;15.93;14.23;;;1.10;99.90;;;;;;5112201;28;20222;-81
2021/03/07 05:02:23;;;;;;;19.87;14.93;;;1.10;99.90;;;;;;5095311;28;20510;-90
2021/03/07 05:05:03;;;;;;;17.23;14.27;;;1.10;99.90;;;;;;5094090;28;20180;-86
2021/03/07 05:07:30;;;;;;;17.90;14.10;;;1.10;99.90;;;;;;5095491;28;20625;-85
2021/03/07 05:09:57;;;;;;;19.20;14.97;;;1.10;99.90;;;;;;5096256;28;20167;-83
2021/03/07 05:12:23;;;;;;;16.43;14.73;;;1.10;99.90;;;;;;5104531;27;20188;-83
2021/03/07 05:14:49;;;;;;;17.60;14.13;;;1.10;99.90;;;;;;5122860;27;20243;-85
2021/03/07 05:17:15;;;;;;;19.17;14.53;;;1.20;99.90;;;;;;5116192;28;20179;-81
2021/03/07 05:19:40;;;;;;;17.43;14.60;;;1.20;99.90;;;;;;5111124;27;20187;-80
2021/03/07 05:22:06;;;;;;;18.53;14.57;;;1.10;99.90;;;;;;5100059;28;20645;-79
2021/03/07 05:24:32;;;;;;;18.43;15.17;;;1.10;99.90;;;;;;5100363;28;20759;-88
2021/03/07 05:27:05;;;;;;;19.53;15.00;;;1.10;99.90;;;;;;5100789;28;20234;-90
2021/03/07 05:29:35;;;;;;;19.13;15.70;;;1.10;99.90;;;;;;5099887;28;20175;-89
2021/03/07 05:32:02;;;;;;;18.63;15.00;;;1.10;99.90;;;;;;5098650;28;20171;-90
2021/03/07 05:34:28;;;;;;;17.83;13.73;;;1.10;99.90;;;;;;5099478;28;20156;-89
2021/03/07 05:36:54;;;;;;;17.70;13.27;;;1.10;99.90;;;;;;5101242;28;20172;-89
2021/03/07 05:39:20;;;;;;;19.83;14.37;;;1.00;99.90;;;;;;5100314;28;20270;-90
2021/03/07 05:41:46;;;;;;;16.33;13.50;;;1.00;99.90;;;;;;5104970;28;20175;-91
2021/03/07 05:44:12;;;;;;;16.60;14.03;;;1.00;99.90;;;;;;5098074;28;20178;-89
2021/03/07 05:46:39;;;;;;;18.77;15.17;;;1.00;99.90;;;;;;5097990;28;20294;-89
2021/03/07 05:49:06;;;;;;;18.17;15.63;;;0.90;99.90;;;;;;5100837;28;20187;-89
2021/03/07 05:51:32;;;;;;;18.53;14.87;;;0.90;99.90;;;;;;5102346;28;20387;-89
2021/03/07 05:53:59;;;;;;;20.10;15.70;;;1.00;99.90;;;;;;5108336;28;20168;-85
2021/03/07 05:56:26;;;;;;;18.37;14.40;;;1.00;99.90;;;;;;5119771;28;20152;-90
2021/03/07 05:58:53;;;;;;;18.40;14.97;;;0.90;99.90;;;;;;5103961;28;20171;-89
2021/03/07 06:01:38;;;;;;;18.93;15.43;;;0.80;99.90;;;;;;5100737;28;20164;-90
2021/03/07 06:04:05;;;;;;;24.33;14.77;;;0.90;99.90;;;;;;5098548;28;20164;-88
2021/03/07 06:06:33;;;;;;;19.37;16.03;;;0.90;99.90;;;;;;5097281;28;20224;-88
2021/03/07 06:09:19;;;;;;;20.20;15.80;;;1.00;99.90;;;;;;5098631;28;20247;-88
2021/03/07 06:11:49;;;;;;;19.80;15.07;;;1.00;99.90;;;;;;5096762;28;20286;-87
2021/03/07 06:14:24;;;;;;;20.57;16.23;;;1.10;99.90;;;;;;5096649;28;20203;-84
2021/03/07 06:17:20;;;;;;;18.83;15.03;;;1.10;99.90;;;;;;5098922;28;20163;-87
2021/03/07 06:20:04;;;;;;;19.80;16.00;;;1.00;99.90;;;;;;5101085;28;20195;-89
2021/03/07 06:22:32;;;;;;;22.13;16.53;;;1.10;99.90;;;;;;5104872;28;20174;-87
2021/03/07 06:24:58;;;;;;;23.03;15.80;;;1.20;99.90;;;;;;5103005;28;20191;-88
2021/03/07 06:27:25;;;;;;;21.00;16.03;;;1.20;99.90;;;;;;5099064;28;20237;-87
2021/03/07 06:29:58;;;;;;;20.07;15.27;;;1.10;99.90;;;;;;5097730;28;20171;-87
2021/03/07 06:32:28;;;;;;;18.27;15.70;;;1.10;99.90;;;;;;5097217;28;20171;-88
2021/03/07 06:34:55;;;;;;;20.43;16.20;;;1.20;99.90;;;;;;5096635;28;20643;-85
2021/03/07 06:37:21;;;;;;;20.00;16.03;;;1.30;99.90;;;;;;5097160;28;20174;-86
2021/03/07 06:39:47;;;;;;;20.93;15.93;;;1.20;99.90;;;;;;5097679;28;20205;-88
2021/03/07 06:42:13;;;;;;;20.03;15.83;;;1.20;99.90;;;;;;5112047;27;20178;-82
2021/03/07 06:44:52;;;;;;;19.03;14.63;;;1.10;99.90;;;;;;5118483;28;20172;-85
2021/03/07 06:47:20;;;;;;;19.33;15.77;;;1.10;99.90;;;;;;5115150;28;20221;-87
2021/03/07 06:49:47;;;;;;;18.60;15.43;;;1.10;99.90;;;;;;5109452;28;20172;-88
2021/03/07 06:52:20;;;;;;;19.40;15.33;;;1.20;99.90;;;;;;5110984;28;20152;-85
2021/03/07 06:55:03;;;;;;;21.30;16.03;;;1.20;99.90;;;;;;5118021;27;20168;-84
2021/03/07 06:57:29;;;;;;;18.70;15.47;;;1.30;99.90;;;;;;5118336;28;20159;-83
2021/03/07 06:59:54;;;;;;;19.27;15.83;;;1.30;99.90;;;;;;5117309;27;20252;-85
2021/03/07 07:02:26;;;;;;;17.53;15.40;;;1.40;99.90;;;;;;5109902;28;20495;-89
2021/03/07 07:04:53;;;;;;;18.13;14.70;;;1.30;99.90;;;;;;5117650;28;20191;-80
2021/03/07 07:07:23;;;;;;;19.23;15.37;;;1.30;99.90;;;;;;5119202;27;20268;-80
2021/03/07 07:10:01;;;;;;;19.43;15.27;;;1.30;99.90;;;;;;5114558;28;20152;-88
2021/03/07 07:16:09;;;;;;;21.30;16.37;;;1.30;99.90;;;;;;5099124;28;20189;-89
2021/03/07 07:18:36;;;;;;;18.20;15.70;;;1.40;99.90;;;;;;5097276;28;20191;-90
2021/03/07 07:21:04;;;;;;;18.83;15.20;;;1.40;99.90;;;;;;5098724;28;20179;-89
2021/03/07 07:23:31;;;;;;;18.63;14.90;;;1.50;99.90;;;;;;5102206;28;20187;-88
2021/03/07 07:25:56;;;;;;;20.93;16.23;;;1.50;99.90;;;;;;5099011;28;20170;-91
2021/03/07 07:28:23;;;;;;;20.23;16.67;;;1.60;99.90;;;;;;5107425;28;20203;-88
2021/03/07 07:31:01;;;;;;;27.43;15.03;;;1.70;99.90;;;;;;5108362;28;20168;-91
2021/03/07 07:33:48;;;;;;;17.63;15.80;;;1.70;99.90;;;;;;5099438;28;20197;-87
2021/03/07 07:36:41;;;;;;;17.93;15.43;;;1.80;99.90;;;;;;5099597;28;20186;-80
2021/03/07 07:39:10;;;;;;;20.17;14.60;;;1.90;99.90;;;;;;5097238;28;20614;-81
2021/03/07 07:41:38;;;;;;;19.47;15.83;;;1.90;99.90;;;;;;5098428;28;20574;-85
2021/03/07 07:44:09;;;;;;;18.83;16.13;;;1.90;99.90;;;;;;5107112;28;20152;-84
2021/03/07 07:46:53;;;;;;;20.23;17.13;;;1.90;99.90;;;;;;5113481;28;20623;-81
2021/03/07 07:49:51;;;;;;;19.50;16.23;;;2.00;99.90;;;;;;5114520;28;20195;-82
2021/03/07 07:52:32;;;;;;;20.77;17.80;;;2.00;99.90;;;;;;5104185;28;20183;-87
2021/03/07 07:55:07;;;;;;;19.30;17.20;;;2.10;99.90;;;;;;5101078;28;20156;-88
2021/03/07 07:57:47;;;;;;;20.10;17.13;;;2.10;99.90;;;;;;5098747;28;20167;-88
2021/03/07 08:00:16;;;;;;;18.83;16.20;;;2.20;99.90;;;;;;5100337;28;20168;-86
2021/03/07 08:02:54;;;;;;;22.20;16.90;;;2.20;99.90;;;;;;5098117;28;20266;-88
2021/03/07 08:05:26;;;;;;;19.93;16.87;;;2.40;99.90;;;;;;5099455;28;20220;-87
2021/03/07 08:08:07;;;;;;;19.83;17.67;;;2.20;99.90;;;;;;5099664;28;20746;-90
2021/03/07 08:10:44;;;;;;;20.47;17.60;;;2.30;99.90;;;;;;5100852;28;20186;-91
2021/03/07 08:13:35;;;;;;;20.67;17.07;;;2.10;99.90;;;;;;5109172;28;20183;-84
2021/03/07 08:16:03;;;;;;;21.50;18.40;;;2.30;99.90;;;;;;5109851;28;20176;-86
2021/03/07 08:18:49;;;;;;;26.30;18.50;;;2.40;99.90;;;;;;5113451;28;20199;-80
2021/03/07 08:21:19;;;;;;;26.47;19.43;;;2.50;99.90;;;;;;5112807;28;20162;-84
2021/03/07 08:23:54;;;;;;;21.70;18.50;;;2.50;99.90;;;;;;5099136;28;20192;-84
2021/03/07 08:26:22;;;;;;;28.03;20.13;;;2.40;99.90;;;;;;5101538;28;20250;-90
2021/03/07 08:28:51;;;;;;;36.40;21.50;;;2.40;99.90;;;;;;5105255;28;20190;-89
2021/03/07 08:31:19;;;;;;;32.73;23.60;;;2.30;99.90;;;;;;5101824;28;20201;-88
2021/03/07 08:33:46;;;;;;;34.70;25.93;;;2.40;99.90;;;;;;5110006;28;20160;-85
2021/03/07 08:36:20;;;;;;;38.13;26.93;;;2.40;99.90;;;;;;5109444;28;20194;-87
2021/03/07 08:38:52;;;;;;;35.87;24.20;;;2.40;99.90;;;;;;5104322;28;20199;-89
2021/03/07 08:41:22;;;;;;;37.10;24.63;;;2.40;99.90;;;;;;5103765;28;20163;-88
2021/03/07 08:43:57;;;;;;;32.70;23.50;;;2.40;99.90;;;;;;5106173;28;20215;-90
2021/03/07 08:46:41;;;;;;;33.33;24.33;;;2.40;99.90;;;;;;5104052;28;20632;-90
2021/03/07 08:49:13;;;;;;;29.43;19.97;;;2.40;99.90;;;;;;5099367;28;20187;-92
2021/03/07 08:51:49;;;;;;;32.13;22.27;;;2.40;99.90;;;;;;5102181;28;20171;-87
2021/03/07 08:54:22;;;;;;;26.93;21.10;;;2.50;99.90;;;;;;5089760;28;20696;-87
2021/03/07 08:56:49;;;;;;;25.80;20.40;;;2.50;99.90;;;;;;5082596;28;20180;-90
2021/03/07 08:59:16;;;;;;;26.07;20.30;;;2.70;99.90;;;;;;5079046;28;20175;-88
2021/03/07 09:01:43;;;;;;;29.03;21.13;;;2.70;99.90;;;;;;5091527;28;20176;-88
2021/03/07 09:04:10;;;;;;;26.10;19.07;;;2.70;99.90;;;;;;5095527;28;20166;-81
2021/03/07 09:06:41;;;;;;;24.50;18.43;;;2.80;99.90;;;;;;5093693;28;20172;-83
2021/03/07 09:09:17;;;;;;;29.47;19.63;;;2.90;99.90;;;;;;5083588;28;20171;-87
2021/03/07 09:12:05;;;;;;;24.00;18.43;;;2.90;99.90;;;;;;5075618;28;20195;-87
2021/03/07 09:14:33;;;;;;;24.13;18.20;;;3.00;99.90;;;;;;5073069;28;20168;-84
2021/03/07 09:17:00;;;;;;;20.77;17.40;;;3.00;99.90;;;;;;5081849;28;20168;-83
2021/03/07 09:19:35;;;;;;;20.67;17.00;;;3.10;99.90;;;;;;5104748;28;20195;-84
2021/03/07 09:22:14;;;;;;;24.00;18.77;;;3.20;99.90;;;;;;5101845;28;20201;-80
2021/03/07 09:24:50;;;;;;;25.83;18.23;;;3.30;99.90;;;;;;5095648;28;20195;-80
2021/03/07 09:27:17;;;;;;;22.33;17.17;;;3.50;99.90;;;;;;5094315;28;20198;-80
2021/03/07 09:29:57;;;;;;;21.33;16.87;;;3.70;93.60;;;;;;5094833;28;20530;-80
2021/03/07 09:32:32;;;;;;;21.77;17.43;;;3.70;92.30;;;;;;5094429;28;20203;-85
2021/03/07 09:35:00;;;;;;;19.73;16.10;;;3.80;92.00;;;;;;5097055;28;20168;-86
2021/03/07 09:37:32;;;;;;;20.97;16.67;;;3.80;90.50;;;;;;5099135;28;20170;-85
2021/03/07 09:40:01;;;;;;;20.50;16.73;;;3.90;90.30;;;;;;5098732;28;20164;-84
2021/03/07 09:42:29;;;;;;;19.13;14.90;;;4.00;89.20;;;;;;5095764;28;20217;-82
2021/03/07 09:44:55;;;;;;;18.87;15.10;;;4.20;86.00;;;;;;5097369;28;20211;-86
2021/03/07 09:47:23;;;;;;;18.43;14.63;;;4.30;83.20;;;;;;5097402;28;20200;-88
2021/03/07 09:49:52;;;;;;;13.77;12.20;;;4.40;77.40;;;;;;5096490;28;20267;-86
2021/03/07 09:52:33;;;;;;;15.80;12.80;;;4.40;69.50;;;;;;5095103;28;20221;-87
2021/03/07 09:55:05;;;;;;;19.47;11.47;;;4.40;68.10;;;;;;5078883;28;20164;-85
2021/03/07 09:57:31;;;;;;;13.83;11.47;;;4.40;65.70;;;;;;5097590;28;20217;-85
2021/03/07 10:00:08;;;;;;;15.30;11.80;;;4.40;64.20;;;;;;5099906;28;20600;-86
2021/03/07 10:02:35;;;;;;;15.47;11.33;;;4.50;62.90;;;;;;5103615;28;20175;-84
2021/03/07 10:05:11;;;;;;;14.03;10.97;;;4.60;57.20;;;;;;5099934;28;20171;-84
2021/03/07 10:07:36;;;;;;;14.63;11.13;;;4.90;50.90;;;;;;5101076;28;20255;-86
2021/03/07 10:10:26;;;;;;;14.37;11.23;;;5.00;46.60;;;;;;5099305;28;20172;-88
2021/03/07 10:12:57;;;;;;;13.20;9.10;;;5.10;43.80;;;;;;5099461;28;20172;-86
2021/03/07 10:15:26;;;;;;;12.60;9.23;;;5.20;29.20;;;;;;5096540;28;20171;-87
2021/03/07 10:17:52;;;;;;;9.97;8.83;;;5.10;25.40;;;;;;5098182;28;20248;-86
2021/03/07 10:20:18;;;;;;;12.60;9.77;;;5.10;33.40;;;;;;5098616;28;20276;-88
2021/03/07 10:22:45;;;;;;;12.47;8.50;;;5.20;31.70;;;;;;5098361;28;20187;-85
2021/03/07 10:25:24;;;;;;;10.13;8.17;;;5.30;28.80;;;;;;5097807;28;20207;-85
2021/03/07 10:28:08;;;;;;;8.63;7.73;;;5.40;20.10;;;;;;5096027;28;20314;-86
2021/03/07 10:30:35;;;;;;;8.83;7.37;;;5.40;19.20;;;;;;5099128;28;20168;-84
2021/03/07 10:33:17;;;;;;;10.00;7.60;;;5.50;14.80;;;;;;5096029;28;20260;-86
2021/03/07 10:36:10;;;;;;;9.40;8.03;;;5.50;16.70;;;;;;5097842;28;20490;-90
2021/03/07 10:38:43;;;;;;;10.23;7.83;;;5.50;17.20;;;;;;5109655;28;20168;-85
2021/03/07 10:41:31;;;;;;;8.90;7.43;;;5.60;15.50;;;;;;5104235;28;20182;-85
2021/03/07 10:44:00;;;;;;;9.53;7.67;;;5.70;7.90;;;;;;5096794;28;20658;-87
2021/03/07 10:46:31;;;;;;;9.93;7.30;;;5.60;4.50;;;;;;5097196;28;20607;-86
2021/03/07 10:48:59;;;;;;;10.03;7.27;;;5.60;3.50;;;;;;5097419;28;20199;-86
2021/03/07 10:51:26;;;;;;;8.13;6.77;;;5.80;4.90;;;;;;5117579;27;20158;-87
2021/03/07 10:53:53;;;;;;;11.37;7.77;;;5.90;2.40;;;;;;5119930;27;20163;-85
2021/03/07 10:56:19;;;;;;;7.20;6.40;;;6.00;2.20;;;;;;5108174;28;20168;-88
2021/03/07 10:58:46;;;;;;;8.47;5.93;;;6.00;1.00;;;;;;5103824;28;20604;-87
2021/03/07 11:01:17;;;;;;;10.57;7.27;;;6.10;1.00;;;;;;5104687;28;20172;-87
2021/03/07 11:03:43;;;;;;;11.43;7.33;;;6.20;1.00;;;;;;5103482;28;20184;-90
2021/03/07 11:06:12;;;;;;;9.10;6.87;;;6.20;1.00;;;;;;5117320;28;20175;-83
2021/03/07 11:08:41;;;;;;;8.17;6.73;;;6.10;1.00;;;;;;5113883;28;20275;-81
2021/03/07 11:11:08;;;;;;;8.23;6.60;;;6.00;1.00;;;;;;5097784;28;20167;-84
2021/03/07 11:13:35;;;;;;;7.47;5.67;;;5.90;1.00;;;;;;5102476;28;20180;-83
2021/03/07 11:16:04;;;;;;;10.07;6.33;;;5.70;1.00;;;;;;5092379;28;20168;-84
2021/03/07 11:18:37;;;;;;;8.30;6.73;;;5.70;1.00;;;;;;5077014;28;20210;-83
2021/03/07 11:24:24;;;;;;;7.67;6.57;;;5.70;1.00;;;;;;5079656;28;20222;-83
2021/03/07 11:26:51;;;;;;;8.83;6.93;;;5.80;1.00;;;;;;5095006;28;20650;-82
2021/03/07 11:29:17;;;;;;;9.93;7.43;;;6.00;1.00;;;;;;5095930;28;20367;-83
2021/03/07 11:31:42;;;;;;;10.20;7.13;;;6.10;1.00;;;;;;5101507;28;20335;-86
2021/03/07 11:34:08;;;;;;;9.03;7.00;;;6.20;1.00;;;;;;5105843;28;20176;-84
2021/03/07 11:36:34;;;;;;;8.40;6.07;;;6.10;1.00;;;;;;5100457;28;20168;-83
2021/03/07 11:39:03;;;;;;;8.90;5.70;;;6.20;1.00;;;;;;5104201;28;20544;-82
2021/03/07 11:41:31;;;;;;;8.23;6.80;;;6.10;1.00;;;;;;5097699;28;20172;-88
2021/03/07 11:44:14;;;;;;;7.80;6.53;;;6.00;1.00;;;;;;5104024;28;20164;-85
2021/03/07 11:46:40;;;;;;;8.37;6.97;;;5.90;1.00;;;;;;5094365;28;20200;-81
2021/03/07 11:49:06;;;;;;;10.23;6.80;;;6.10;1.00;;;;;;5093620;28;20188;-82
2021/03/07 11:51:35;;;;;;;10.90;6.93;;;5.90;1.00;;;;;;5094178;28;20175;-81
2021/03/07 11:54:02;;;;;;;8.27;5.93;;;6.10;1.00;;;;;;5093156;28;20180;-85
2021/03/07 11:56:28;;;;;;;8.73;6.20;;;6.00;1.00;;;;;;5093505;28;20174;-86
2021/03/07 11:58:54;;;;;;;9.43;6.37;;;6.00;1.00;;;;;;5095676;28;20611;-81
2021/03/07 12:01:20;;;;;;;7.80;6.57;;;6.00;1.00;;;;;;5096595;28;20183;-83
2021/03/07 12:03:46;;;;;;;9.73;6.37;;;6.10;1.00;;;;;;5095649;28;20176;-87
2021/03/07 12:06:11;;;;;;;10.70;6.83;;;6.30;1.00;;;;;;5094982;28;20175;-84
2021/03/07 12:08:37;;;;;;;9.23;6.90;;;6.30;1.00;;;;;;5095029;28;20207;-85
2021/03/07 12:11:03;;;;;;;9.03;6.83;;;6.50;1.00;;;;;;5077242;28;20184;-83
2021/03/07 12:13:30;;;;;;;9.40;6.30;;;6.70;1.00;;;;;;5102319;28;20211;-85
2021/03/07 12:15:56;;;;;;;9.93;6.60;;;6.90;1.00;;;;;;5098145;28;20179;-81
2021/03/07 12:18:21;;;;;;;9.40;6.80;;;7.10;1.00;;;;;;5102330;28;20188;-82
2021/03/07 12:20:47;;;;;;;11.87;7.10;;;7.00;1.00;;;;;;5097583;28;20174;-83
2021/03/07 12:23:13;;;;;;;9.83;6.77;;;6.80;1.00;;;;;;5097521;28;20171;-81
2021/03/07 12:25:38;;;;;;;8.50;5.87;;;6.50;1.00;;;;;;5094061;28;20198;-81
2021/03/07 12:28:04;;;;;;;8.63;7.10;;;6.30;1.00;;;;;;5093203;28;20207;-83
2021/03/07 12:30:30;;;;;;;7.67;6.87;;;6.30;1.00;;;;;;5093974;28;20235;-81
2021/03/07 12:32:56;;;;;;;9.03;6.67;;;6.40;1.00;;;;;;5094074;28;20226;-83
2021/03/07 12:35:22;;;;;;;9.07;7.33;;;6.30;1.00;;;;;;5094476;28;20684;-82
2021/03/07 12:37:47;;;;;;;9.13;6.90;;;6.40;1.00;;;;;;5092587;28;20167;-82
2021/03/07 12:40:14;;;;;;;9.47;6.77;;;6.50;1.00;;;;;;5092176;28;20171;-83
2021/03/07 12:42:39;;;;;;;9.97;7.20;;;6.40;1.00;;;;;;5092595;28;20171;-82
2021/03/07 12:45:06;;;;;;;10.30;7.90;;;6.50;1.00;;;;;;5092122;28;20167;-84
2021/03/07 12:47:32;;;;;;;9.03;7.03;;;6.60;1.00;;;;;;5083699;28;20223;-82
2021/03/07 12:49:58;;;;;;;7.50;6.20;;;6.70;1.00;;;;;;5092745;28;20268;-84
2021/03/07 12:52:24;;;;;;;8.80;6.83;;;6.80;1.00;;;;;;5093027;28;20176;-85
2021/03/07 12:54:49;;;;;;;10.53;6.33;;;6.90;1.00;;;;;;5092016;28;20245;-85
2021/03/07 12:57:15;;;;;;;8.53;6.43;;;7.20;1.00;;;;;;5093436;28;20579;-84
2021/03/07 12:59:41;;;;;;;8.70;7.50;;;7.50;99.90;;;;;;5091966;28;20704;-83
2021/03/07 13:02:07;;;;;;;9.27;5.73;;;7.50;99.90;;;;;;5091493;28;20270;-84
2021/03/07 13:04:32;;;;;;;7.23;5.83;;;7.20;1.00;;;;;;5091869;28;20186;-81
2021/03/07 13:06:58;;;;;;;10.40;6.53;;;7.10;1.00;;;;;;5093282;28;20199;-82
2021/03/07 13:09:24;;;;;;;7.03;5.60;;;6.80;1.00;;;;;;5092258;28;21169;-81
2021/03/07 13:11:49;;;;;;;9.23;6.17;;;6.80;1.00;;;;;;5092520;28;20639;-83